sensor_id;sensor_type;location;lat;lon;timestamp;temperature;humidity
37886;DHT22;23726;52.520;13.434;2022-08-05T00:00:59;28.50;48.00
37886;DHT22;23726;52.520;13.434;2022-08-05T00:03:24;28.50;48.00
37886;DHT22;23726;52.520;13.434;2022-08-05T00:05:50;28.50;48.00
37886;DHT22;23726;52.520;13.434;2022-08-05T00:08:15;28.50;48.10
37886;DHT22;23726;52.520;13.434;2022-08-05T00:10:41;28.50;48.00
37886;DHT22;23726;52.520;13.434;2022-08-05T00:13:07;28.50;48.00
37886;DHT22;23726;52.520;13.434;2022-08-05T00:15:32;28.50;48.00
37886;DHT22;23726;52.520;13.434;2022-08-05T00:17:58;28.50;48.00
37886;DHT22;23726;52.520;13.434;2022-08-05T00:20:24;28.60;48.00
37886;DHT22;23726;52.520;13.434;2022-08-05T00:22:49;28.60;47.90
37886;DHT22;23726;52.520;13.434;2022-08-05T00:25:15;28.60;48.00
37886;DHT22;23726;52.520;13.434;2022-08-05T00:27:40;28.60;48.10
37886;DHT22;23726;52.520;13.434;2022-08-05T00:30:06;28.60;48.00
37886;DHT22;23726;52.520;13.434;2022-08-05T00:32:32;28.60;48.00
37886;DHT22;23726;52.520;13.434;2022-08-05T00:34:57;28.60;47.90
37886;DHT22;23726;52.520;13.434;2022-08-05T00:37:23;28.60;47.90
37886;DHT22;23726;52.520;13.434;2022-08-05T00:39:48;28.60;48.00
37886;DHT22;23726;52.520;13.434;2022-08-05T00:42:14;28.60;48.10
37886;DHT22;23726;52.520;13.434;2022-08-05T00:44:42;28.60;48.00
37886;DHT22;23726;52.520;13.434;2022-08-05T00:47:07;28.60;48.00
37886;DHT22;23726;52.520;13.434;2022-08-05T00:49:33;28.60;47.90
37886;DHT22;23726;52.520;13.434;2022-08-05T00:51:59;28.60;47.90
37886;DHT22;23726;52.520;13.434;2022-08-05T00:54:24;28.60;48.00
37886;DHT22;23726;52.520;13.434;2022-08-05T00:56:50;28.60;48.00
37886;DHT22;23726;52.520;13.434;2022-08-05T00:59:15;28.60;48.00
37886;DHT22;23726;52.520;13.434;2022-08-05T01:01:41;28.60;48.00
37886;DHT22;23726;52.520;13.434;2022-08-05T01:04:07;28.60;48.00
37886;DHT22;23726;52.520;13.434;2022-08-05T01:06:32;28.60;48.30
37886;DHT22;23726;52.520;13.434;2022-08-05T01:08:58;28.60;47.60
37886;DHT22;23726;52.520;13.434;2022-08-05T01:11:29;28.50;46.80
37886;DHT22;23726;52.520;13.434;2022-08-05T01:16:48;28.40;46.20
37886;DHT22;23726;52.520;13.434;2022-08-05T01:22:16;28.40;45.10
37886;DHT22;23726;52.520;13.434;2022-08-05T01:24:59;28.40;44.10
37886;DHT22;23726;52.520;13.434;2022-08-05T01:30:26;28.30;44.80
37886;DHT22;23726;52.520;13.434;2022-08-05T01:32:57;28.40;44.70
37886;DHT22;23726;52.520;13.434;2022-08-05T01:35:26;28.40;44.80
37886;DHT22;23726;52.520;13.434;2022-08-05T01:37:55;28.40;44.80
37886;DHT22;23726;52.520;13.434;2022-08-05T01:40:26;28.40;44.80
37886;DHT22;23726;52.520;13.434;2022-08-05T01:42:54;28.40;44.90
37886;DHT22;23726;52.520;13.434;2022-08-05T01:45:21;28.50;45.10
37886;DHT22;23726;52.520;13.434;2022-08-05T01:47:49;28.50;45.20
37886;DHT22;23726;52.520;13.434;2022-08-05T01:50:51;28.50;45.20
37886;DHT22;23726;52.520;13.434;2022-08-05T01:53:19;28.50;45.20
37886;DHT22;23726;52.520;13.434;2022-08-05T01:55:46;28.50;45.40
37886;DHT22;23726;52.520;13.434;2022-08-05T01:58:13;28.50;45.40
37886;DHT22;23726;52.520;13.434;2022-08-05T02:00:44;28.50;45.50
37886;DHT22;23726;52.520;13.434;2022-08-05T02:03:17;28.50;45.60
37886;DHT22;23726;52.520;13.434;2022-08-05T02:05:45;28.50;45.60
37886;DHT22;23726;52.520;13.434;2022-08-05T02:08:11;28.50;45.70
37886;DHT22;23726;52.520;13.434;2022-08-05T02:10:48;28.50;45.80
37886;DHT22;23726;52.520;13.434;2022-08-05T02:13:17;28.50;45.90
37886;DHT22;23726;52.520;13.434;2022-08-05T02:15:56;28.50;45.90
37886;DHT22;23726;52.520;13.434;2022-08-05T02:18:29;28.50;46.10
37886;DHT22;23726;52.520;13.434;2022-08-05T02:21:21;28.50;46.00
37886;DHT22;23726;52.520;13.434;2022-08-05T02:23:54;28.50;46.10
37886;DHT22;23726;52.520;13.434;2022-08-05T02:26:28;28.50;46.20
37886;DHT22;23726;52.520;13.434;2022-08-05T02:28:57;28.50;46.20
37886;DHT22;23726;52.520;13.434;2022-08-05T02:31:27;28.50;46.70
37886;DHT22;23726;52.520;13.434;2022-08-05T02:34:01;28.50;46.20
37886;DHT22;23726;52.520;13.434;2022-08-05T02:36:29;28.50;46.20
37886;DHT22;23726;52.520;13.434;2022-08-05T02:38:56;28.50;46.80
37886;DHT22;23726;52.520;13.434;2022-08-05T02:41:24;28.50;46.30
37886;DHT22;23726;52.520;13.434;2022-08-05T02:43:51;28.50;46.30
37886;DHT22;23726;52.520;13.434;2022-08-05T02:46:18;28.50;46.40
37886;DHT22;23726;52.520;13.434;2022-08-05T02:48:45;28.50;46.40
37886;DHT22;23726;52.520;13.434;2022-08-05T02:51:13;28.50;46.40
37886;DHT22;23726;52.520;13.434;2022-08-05T02:53:40;28.50;46.50
37886;DHT22;23726;52.520;13.434;2022-08-05T02:56:09;28.50;46.60
37886;DHT22;23726;52.520;13.434;2022-08-05T02:58:38;28.50;46.60
37886;DHT22;23726;52.520;13.434;2022-08-05T03:01:06;28.50;46.50
37886;DHT22;23726;52.520;13.434;2022-08-05T03:03:34;28.50;46.60
37886;DHT22;23726;52.520;13.434;2022-08-05T03:06:03;28.50;46.60
37886;DHT22;23726;52.520;13.434;2022-08-05T03:08:29;28.50;46.70
37886;DHT22;23726;52.520;13.434;2022-08-05T03:10:55;28.50;46.70
37886;DHT22;23726;52.520;13.434;2022-08-05T03:13:21;28.50;46.80
37886;DHT22;23726;52.520;13.434;2022-08-05T03:15:47;28.50;46.80
37886;DHT22;23726;52.520;13.434;2022-08-05T03:18:13;28.50;46.90
37886;DHT22;23726;52.520;13.434;2022-08-05T03:20:39;28.50;46.90
37886;DHT22;23726;52.520;13.434;2022-08-05T03:23:05;28.50;46.90
37886;DHT22;23726;52.520;13.434;2022-08-05T03:25:34;28.50;46.90
37886;DHT22;23726;52.520;13.434;2022-08-05T03:28:01;28.50;47.00
37886;DHT22;23726;52.520;13.434;2022-08-05T03:30:29;28.50;47.00
37886;DHT22;23726;52.520;13.434;2022-08-05T03:32:58;28.50;47.00
37886;DHT22;23726;52.520;13.434;2022-08-05T03:35:27;28.50;47.00
37886;DHT22;23726;52.520;13.434;2022-08-05T03:37:56;28.50;47.00
37886;DHT22;23726;52.520;13.434;2022-08-05T03:40:22;28.50;47.10
37886;DHT22;23726;52.520;13.434;2022-08-05T03:42:47;28.50;47.10
37886;DHT22;23726;52.520;13.434;2022-08-05T03:45:14;28.50;47.10
37886;DHT22;23726;52.520;13.434;2022-08-05T03:47:40;28.50;47.10
37886;DHT22;23726;52.520;13.434;2022-08-05T03:50:05;28.50;47.20
37886;DHT22;23726;52.520;13.434;2022-08-05T03:52:34;28.50;47.10
37886;DHT22;23726;52.520;13.434;2022-08-05T03:55:07;28.50;47.20
37886;DHT22;23726;52.520;13.434;2022-08-05T03:57:36;28.50;47.20
37886;DHT22;23726;52.520;13.434;2022-08-05T04:00:13;28.50;47.20
37886;DHT22;23726;52.520;13.434;2022-08-05T04:02:44;28.50;47.20
37886;DHT22;23726;52.520;13.434;2022-08-05T04:05:11;28.50;47.80
37886;DHT22;23726;52.520;13.434;2022-08-05T04:07:39;28.50;47.30
37886;DHT22;23726;52.520;13.434;2022-08-05T04:10:05;28.50;47.30
37886;DHT22;23726;52.520;13.434;2022-08-05T04:12:31;28.50;47.30
37886;DHT22;23726;52.520;13.434;2022-08-05T04:14:58;28.50;47.30
37886;DHT22;23726;52.520;13.434;2022-08-05T04:17:24;28.50;47.30
37886;DHT22;23726;52.520;13.434;2022-08-05T04:19:49;28.50;47.30
37886;DHT22;23726;52.520;13.434;2022-08-05T04:22:16;28.50;47.40
37886;DHT22;23726;52.520;13.434;2022-08-05T04:24:45;28.50;47.40
37886;DHT22;23726;52.520;13.434;2022-08-05T04:27:12;28.50;47.40
37886;DHT22;23726;52.520;13.434;2022-08-05T04:29:38;28.50;47.40
37886;DHT22;23726;52.520;13.434;2022-08-05T04:32:04;28.50;47.40
37886;DHT22;23726;52.520;13.434;2022-08-05T04:34:30;28.50;47.40
37886;DHT22;23726;52.520;13.434;2022-08-05T04:36:55;28.50;47.40
37886;DHT22;23726;52.520;13.434;2022-08-05T04:39:21;28.50;47.40
37886;DHT22;23726;52.520;13.434;2022-08-05T04:41:48;28.50;47.40
37886;DHT22;23726;52.520;13.434;2022-08-05T04:44:14;28.50;47.40
37886;DHT22;23726;52.520;13.434;2022-08-05T04:46:39;28.50;47.50
37886;DHT22;23726;52.520;13.434;2022-08-05T04:49:06;28.50;47.50
37886;DHT22;23726;52.520;13.434;2022-08-05T04:51:32;28.50;47.50
37886;DHT22;23726;52.520;13.434;2022-08-05T04:53:59;28.50;47.50
37886;DHT22;23726;52.520;13.434;2022-08-05T04:56:25;28.50;47.60
37886;DHT22;23726;52.520;13.434;2022-08-05T04:58:51;28.50;47.60
37886;DHT22;23726;52.520;13.434;2022-08-05T05:01:17;28.50;47.60
37886;DHT22;23726;52.520;13.434;2022-08-05T05:03:43;28.50;47.70
37886;DHT22;23726;52.520;13.434;2022-08-05T05:06:12;28.50;47.70
37886;DHT22;23726;52.520;13.434;2022-08-05T05:08:38;28.50;47.80
37886;DHT22;23726;52.520;13.434;2022-08-05T05:11:04;28.50;47.80
37886;DHT22;23726;52.520;13.434;2022-08-05T05:13:30;28.50;47.80
37886;DHT22;23726;52.520;13.434;2022-08-05T05:15:57;28.50;47.90
37886;DHT22;23726;52.520;13.434;2022-08-05T05:18:23;28.50;47.90
37886;DHT22;23726;52.520;13.434;2022-08-05T05:20:48;28.50;47.90
37886;DHT22;23726;52.520;13.434;2022-08-05T05:23:14;28.50;47.90
37886;DHT22;23726;52.520;13.434;2022-08-05T05:25:41;28.50;48.00
37886;DHT22;23726;52.520;13.434;2022-08-05T05:28:08;28.50;48.10
37886;DHT22;23726;52.520;13.434;2022-08-05T05:30:34;28.50;48.00
37886;DHT22;23726;52.520;13.434;2022-08-05T05:33:01;28.50;48.00
37886;DHT22;23726;52.520;13.434;2022-08-05T05:35:31;28.50;48.10
37886;DHT22;23726;52.520;13.434;2022-08-05T05:37:59;28.50;48.10
37886;DHT22;23726;52.520;13.434;2022-08-05T05:40:26;28.50;48.10
37886;DHT22;23726;52.520;13.434;2022-08-05T05:42:53;28.50;48.20
37886;DHT22;23726;52.520;13.434;2022-08-05T05:45:19;28.50;48.10
37886;DHT22;23726;52.520;13.434;2022-08-05T05:47:45;28.50;48.10
37886;DHT22;23726;52.520;13.434;2022-08-05T05:50:13;28.50;48.00
37886;DHT22;23726;52.520;13.434;2022-08-05T05:52:39;28.50;48.00
37886;DHT22;23726;52.520;13.434;2022-08-05T05:55:07;28.50;48.10
37886;DHT22;23726;52.520;13.434;2022-08-05T05:57:34;28.50;48.10
37886;DHT22;23726;52.520;13.434;2022-08-05T06:00:00;28.50;48.20
37886;DHT22;23726;52.520;13.434;2022-08-05T06:02:25;28.50;48.10
37886;DHT22;23726;52.520;13.434;2022-08-05T06:04:51;28.50;48.10
37886;DHT22;23726;52.520;13.434;2022-08-05T06:07:16;28.50;48.10
37886;DHT22;23726;52.520;13.434;2022-08-05T06:09:43;28.50;48.10
37886;DHT22;23726;52.520;13.434;2022-08-05T06:12:08;28.50;48.10
37886;DHT22;23726;52.520;13.434;2022-08-05T06:14:34;28.50;48.70
37886;DHT22;23726;52.520;13.434;2022-08-05T06:17:00;28.50;48.10
37886;DHT22;23726;52.520;13.434;2022-08-05T06:19:27;28.50;48.10
37886;DHT22;23726;52.520;13.434;2022-08-05T06:21:53;28.50;48.10
37886;DHT22;23726;52.520;13.434;2022-08-05T06:24:20;28.50;48.10
37886;DHT22;23726;52.520;13.434;2022-08-05T06:26:45;28.50;48.10
37886;DHT22;23726;52.520;13.434;2022-08-05T06:29:11;28.50;48.10
37886;DHT22;23726;52.520;13.434;2022-08-05T06:31:37;28.50;48.60
37886;DHT22;23726;52.520;13.434;2022-08-05T06:34:03;28.50;48.10
37886;DHT22;23726;52.520;13.434;2022-08-05T06:36:29;28.50;48.10
37886;DHT22;23726;52.520;13.434;2022-08-05T06:38:54;28.50;48.10
37886;DHT22;23726;52.520;13.434;2022-08-05T06:41:20;28.50;48.10
37886;DHT22;23726;52.520;13.434;2022-08-05T06:43:47;28.50;48.20
37886;DHT22;23726;52.520;13.434;2022-08-05T06:46:13;28.50;48.20
37886;DHT22;23726;52.520;13.434;2022-08-05T06:48:39;28.50;48.20
37886;DHT22;23726;52.520;13.434;2022-08-05T06:51:05;28.50;48.20
37886;DHT22;23726;52.520;13.434;2022-08-05T06:53:31;28.50;48.20
37886;DHT22;23726;52.520;13.434;2022-08-05T06:56:00;28.50;48.20
37886;DHT22;23726;52.520;13.434;2022-08-05T06:58:29;28.50;48.20
37886;DHT22;23726;52.520;13.434;2022-08-05T07:01:00;28.50;48.30
37886;DHT22;23726;52.520;13.434;2022-08-05T07:03:27;28.50;48.30
37886;DHT22;23726;52.520;13.434;2022-08-05T07:05:53;28.50;48.30
37886;DHT22;23726;52.520;13.434;2022-08-05T07:08:19;28.50;48.40
37886;DHT22;23726;52.520;13.434;2022-08-05T07:10:46;28.50;48.30
37886;DHT22;23726;52.520;13.434;2022-08-05T07:13:12;28.50;48.20
37886;DHT22;23726;52.520;13.434;2022-08-05T07:15:56;28.50;48.20
37886;DHT22;23726;52.520;13.434;2022-08-05T07:18:40;28.50;48.30
37886;DHT22;23726;52.520;13.434;2022-08-05T07:21:06;28.60;48.50
37886;DHT22;23726;52.520;13.434;2022-08-05T07:23:32;28.50;48.40
37886;DHT22;23726;52.520;13.434;2022-08-05T07:25:59;28.50;48.40
37886;DHT22;23726;52.520;13.434;2022-08-05T07:28:25;28.50;48.40
37886;DHT22;23726;52.520;13.434;2022-08-05T07:30:51;28.50;48.40
37886;DHT22;23726;52.520;13.434;2022-08-05T07:33:17;28.50;48.50
37886;DHT22;23726;52.520;13.434;2022-08-05T07:35:46;28.60;48.50
37886;DHT22;23726;52.520;13.434;2022-08-05T07:38:12;28.50;48.60
37886;DHT22;23726;52.520;13.434;2022-08-05T07:40:37;28.60;48.60
37886;DHT22;23726;52.520;13.434;2022-08-05T07:43:03;28.50;48.50
37886;DHT22;23726;52.520;13.434;2022-08-05T07:45:29;28.60;48.50
37886;DHT22;23726;52.520;13.434;2022-08-05T07:47:54;28.60;48.50
37886;DHT22;23726;52.520;13.434;2022-08-05T07:50:20;28.60;48.60
37886;DHT22;23726;52.520;13.434;2022-08-05T07:52:45;28.60;48.50
37886;DHT22;23726;52.520;13.434;2022-08-05T07:55:11;28.60;48.50
37886;DHT22;23726;52.520;13.434;2022-08-05T07:57:37;28.60;48.40
37886;DHT22;23726;52.520;13.434;2022-08-05T08:00:06;28.60;48.80
37886;DHT22;23726;52.520;13.434;2022-08-05T08:02:32;28.60;48.30
37886;DHT22;23726;52.520;13.434;2022-08-05T08:04:58;28.60;48.40
37886;DHT22;23726;52.520;13.434;2022-08-05T08:07:24;28.60;48.90
37886;DHT22;23726;52.520;13.434;2022-08-05T08:09:51;28.60;48.40
37886;DHT22;23726;52.520;13.434;2022-08-05T08:12:16;28.60;48.40
37886;DHT22;23726;52.520;13.434;2022-08-05T08:14:42;28.60;48.40
37886;DHT22;23726;52.520;13.434;2022-08-05T08:17:08;28.60;48.40
37886;DHT22;23726;52.520;13.434;2022-08-05T08:19:39;28.60;48.30
37886;DHT22;23726;52.520;13.434;2022-08-05T08:22:05;28.60;48.30
37886;DHT22;23726;52.520;13.434;2022-08-05T08:24:32;28.60;48.30
37886;DHT22;23726;52.520;13.434;2022-08-05T08:26:57;28.60;48.30
37886;DHT22;23726;52.520;13.434;2022-08-05T08:29:24;28.60;48.30
37886;DHT22;23726;52.520;13.434;2022-08-05T08:31:50;28.60;48.30
37886;DHT22;23726;52.520;13.434;2022-08-05T08:34:17;28.60;48.30
37886;DHT22;23726;52.520;13.434;2022-08-05T08:36:43;28.60;48.30
37886;DHT22;23726;52.520;13.434;2022-08-05T08:39:08;28.60;48.30
37886;DHT22;23726;52.520;13.434;2022-08-05T08:41:36;28.60;48.40
37886;DHT22;23726;52.520;13.434;2022-08-05T08:44:06;28.60;48.40
37886;DHT22;23726;52.520;13.434;2022-08-05T08:46:33;28.60;48.40
37886;DHT22;23726;52.520;13.434;2022-08-05T08:49:01;28.60;48.40
37886;DHT22;23726;52.520;13.434;2022-08-05T08:51:31;28.60;48.40
37886;DHT22;23726;52.520;13.434;2022-08-05T08:53:57;28.60;48.40
37886;DHT22;23726;52.520;13.434;2022-08-05T08:56:23;28.60;48.50
37886;DHT22;23726;52.520;13.434;2022-08-05T08:58:49;28.70;48.50
37886;DHT22;23726;52.520;13.434;2022-08-05T09:01:17;28.60;48.40
37886;DHT22;23726;52.520;13.434;2022-08-05T09:03:49;28.60;48.40
37886;DHT22;23726;52.520;13.434;2022-08-05T09:06:15;28.70;48.50
37886;DHT22;23726;52.520;13.434;2022-08-05T09:08:41;28.70;48.50
37886;DHT22;23726;52.520;13.434;2022-08-05T09:11:07;28.60;48.40
37886;DHT22;23726;52.520;13.434;2022-08-05T09:13:34;28.70;48.40
37886;DHT22;23726;52.520;13.434;2022-08-05T09:16:00;28.60;48.30
37886;DHT22;23726;52.520;13.434;2022-08-05T09:18:27;28.70;48.40
37886;DHT22;23726;52.520;13.434;2022-08-05T09:20:53;28.70;48.40
37886;DHT22;23726;52.520;13.434;2022-08-05T09:23:19;28.70;48.40
37886;DHT22;23726;52.520;13.434;2022-08-05T09:25:47;28.70;48.60
37886;DHT22;23726;52.520;13.434;2022-08-05T09:28:18;28.70;48.60
37886;DHT22;23726;52.520;13.434;2022-08-05T09:30:52;28.70;48.40
37886;DHT22;23726;52.520;13.434;2022-08-05T09:33:19;28.70;48.30
37886;DHT22;23726;52.520;13.434;2022-08-05T09:36:03;28.70;48.30
37886;DHT22;23726;52.520;13.434;2022-08-05T09:38:29;28.60;48.30
37886;DHT22;23726;52.520;13.434;2022-08-05T09:41:06;28.70;48.40
37886;DHT22;23726;52.520;13.434;2022-08-05T09:43:35;28.60;48.50
37886;DHT22;23726;52.520;13.434;2022-08-05T09:46:02;28.60;48.50
37886;DHT22;23726;52.520;13.434;2022-08-05T09:48:33;28.70;48.60
37886;DHT22;23726;52.520;13.434;2022-08-05T09:51:02;28.70;48.50
37886;DHT22;23726;52.520;13.434;2022-08-05T09:53:29;28.60;48.40
37886;DHT22;23726;52.520;13.434;2022-08-05T09:56:00;28.60;48.60
37886;DHT22;23726;52.520;13.434;2022-08-05T09:58:26;28.70;49.10
37886;DHT22;23726;52.520;13.434;2022-08-05T10:00:58;28.60;48.50
37886;DHT22;23726;52.520;13.434;2022-08-05T10:03:25;28.60;48.60
37886;DHT22;23726;52.520;13.434;2022-08-05T10:06:08;28.70;48.60
37886;DHT22;23726;52.520;13.434;2022-08-05T10:08:36;28.60;48.60
37886;DHT22;23726;52.520;13.434;2022-08-05T10:11:13;28.70;48.70
37886;DHT22;23726;52.520;13.434;2022-08-05T10:13:40;28.60;48.70
37886;DHT22;23726;52.520;13.434;2022-08-05T10:16:07;28.60;48.60
37886;DHT22;23726;52.520;13.434;2022-08-05T10:18:51;28.60;48.60
37886;DHT22;23726;52.520;13.434;2022-08-05T10:21:18;28.60;48.70
37886;DHT22;23726;52.520;13.434;2022-08-05T10:23:44;28.70;48.80
37886;DHT22;23726;52.520;13.434;2022-08-05T10:26:10;28.70;48.80
37886;DHT22;23726;52.520;13.434;2022-08-05T10:28:37;28.70;48.90
37886;DHT22;23726;52.520;13.434;2022-08-05T10:31:03;28.70;48.90
37886;DHT22;23726;52.520;13.434;2022-08-05T10:33:31;28.70;48.90
37886;DHT22;23726;52.520;13.434;2022-08-05T10:35:58;28.70;48.80
37886;DHT22;23726;52.520;13.434;2022-08-05T10:38:27;28.70;48.90
37886;DHT22;23726;52.520;13.434;2022-08-05T10:46:11;28.70;48.90
37886;DHT22;23726;52.520;13.434;2022-08-05T10:48:57;28.70;48.90
37886;DHT22;23726;52.520;13.434;2022-08-05T10:51:24;28.70;49.00
37886;DHT22;23726;52.520;13.434;2022-08-05T10:56:24;28.70;49.30
37886;DHT22;23726;52.520;13.434;2022-08-05T11:01:29;28.70;49.10
37886;DHT22;23726;52.520;13.434;2022-08-05T11:03:59;28.70;49.10
37886;DHT22;23726;52.520;13.434;2022-08-05T11:06:25;28.70;49.00
37886;DHT22;23726;52.520;13.434;2022-08-05T11:09:17;28.70;49.00
37886;DHT22;23726;52.520;13.434;2022-08-05T11:11:45;28.70;49.00
37886;DHT22;23726;52.520;13.434;2022-08-05T11:14:12;28.70;49.00
37886;DHT22;23726;52.520;13.434;2022-08-05T11:16:37;28.70;49.10
37886;DHT22;23726;52.520;13.434;2022-08-05T11:19:27;28.70;49.50
37886;DHT22;23726;52.520;13.434;2022-08-05T11:21:54;28.70;50.10
37886;DHT22;23726;52.520;13.434;2022-08-05T11:24:20;28.60;49.80
37886;DHT22;23726;52.520;13.434;2022-08-05T11:26:48;28.60;49.40
37886;DHT22;23726;52.520;13.434;2022-08-05T11:29:33;28.60;49.10
37886;DHT22;23726;52.520;13.434;2022-08-05T11:32:26;28.50;49.20
37886;DHT22;23726;52.520;13.434;2022-08-05T11:34:52;28.50;49.20
37886;DHT22;23726;52.520;13.434;2022-08-05T11:40:02;28.60;49.60
37886;DHT22;23726;52.520;13.434;2022-08-05T11:42:31;28.60;49.60
37886;DHT22;23726;52.520;13.434;2022-08-05T11:45:03;28.60;49.60
37886;DHT22;23726;52.520;13.434;2022-08-05T11:47:30;28.60;49.60
37886;DHT22;23726;52.520;13.434;2022-08-05T11:49:57;28.70;49.70
37886;DHT22;23726;52.520;13.434;2022-08-05T11:52:24;28.60;49.70
37886;DHT22;23726;52.520;13.434;2022-08-05T11:54:50;28.70;50.00
37886;DHT22;23726;52.520;13.434;2022-08-05T11:57:17;28.70;50.30
37886;DHT22;23726;52.520;13.434;2022-08-05T11:59:43;28.70;49.80
37886;DHT22;23726;52.520;13.434;2022-08-05T12:02:08;28.70;49.80
37886;DHT22;23726;52.520;13.434;2022-08-05T12:07:09;28.70;49.70
37886;DHT22;23726;52.520;13.434;2022-08-05T12:09:42;28.70;49.80
37886;DHT22;23726;52.520;13.434;2022-08-05T12:12:09;28.70;49.70
37886;DHT22;23726;52.520;13.434;2022-08-05T12:14:43;28.80;49.90
37886;DHT22;23726;52.520;13.434;2022-08-05T12:17:11;28.70;49.80
37886;DHT22;23726;52.520;13.434;2022-08-05T12:19:47;28.70;49.70
37886;DHT22;23726;52.520;13.434;2022-08-05T12:22:17;28.80;49.90
37886;DHT22;23726;52.520;13.434;2022-08-05T12:24:47;28.80;49.70
37886;DHT22;23726;52.520;13.434;2022-08-05T12:27:27;28.80;49.90
37886;DHT22;23726;52.520;13.434;2022-08-05T12:30:10;28.80;49.90
37886;DHT22;23726;52.520;13.434;2022-08-05T12:32:44;28.80;49.90
37886;DHT22;23726;52.520;13.434;2022-08-05T12:35:11;28.80;49.70
37886;DHT22;23726;52.520;13.434;2022-08-05T12:37:39;28.80;49.70
37886;DHT22;23726;52.520;13.434;2022-08-05T12:40:08;28.80;49.70
37886;DHT22;23726;52.520;13.434;2022-08-05T12:42:35;28.80;49.70
37886;DHT22;23726;52.520;13.434;2022-08-05T12:45:08;28.80;49.70
37886;DHT22;23726;52.520;13.434;2022-08-05T12:47:34;28.80;49.60
37886;DHT22;23726;52.520;13.434;2022-08-05T12:50:11;28.80;49.60
37886;DHT22;23726;52.520;13.434;2022-08-05T12:52:37;28.80;49.60
37886;DHT22;23726;52.520;13.434;2022-08-05T12:55:19;28.80;49.70
37886;DHT22;23726;52.520;13.434;2022-08-05T12:57:45;28.80;49.60
37886;DHT22;23726;52.520;13.434;2022-08-05T13:00:22;28.80;49.70
37886;DHT22;23726;52.520;13.434;2022-08-05T13:02:48;28.80;49.70
37886;DHT22;23726;52.520;13.434;2022-08-05T13:05:14;28.80;49.70
37886;DHT22;23726;52.520;13.434;2022-08-05T13:07:41;28.80;49.70
37886;DHT22;23726;52.520;13.434;2022-08-05T13:10:10;28.80;49.70
37886;DHT22;23726;52.520;13.434;2022-08-05T13:12:41;28.80;49.70
37886;DHT22;23726;52.520;13.434;2022-08-05T13:15:08;28.90;49.70
37886;DHT22;23726;52.520;13.434;2022-08-05T13:17:34;28.90;49.70
37886;DHT22;23726;52.520;13.434;2022-08-05T13:20:09;28.80;49.90
37886;DHT22;23726;52.520;13.434;2022-08-05T13:22:42;28.80;49.80
37886;DHT22;23726;52.520;13.434;2022-08-05T13:25:11;28.80;49.80
37886;DHT22;23726;52.520;13.434;2022-08-05T13:27:44;28.80;50.00
37886;DHT22;23726;52.520;13.434;2022-08-05T13:30:13;28.80;49.60
37886;DHT22;23726;52.520;13.434;2022-08-05T13:32:39;28.80;49.70
37886;DHT22;23726;52.520;13.434;2022-08-05T13:35:06;28.80;49.70
37886;DHT22;23726;52.520;13.434;2022-08-05T13:37:32;28.90;49.70
37886;DHT22;23726;52.520;13.434;2022-08-05T13:39:58;28.90;49.80
37886;DHT22;23726;52.520;13.434;2022-08-05T13:42:24;28.90;49.70
37886;DHT22;23726;52.520;13.434;2022-08-05T13:44:54;28.90;49.70
37886;DHT22;23726;52.520;13.434;2022-08-05T13:47:20;28.90;49.60
37886;DHT22;23726;52.520;13.434;2022-08-05T13:49:47;28.90;49.60
37886;DHT22;23726;52.520;13.434;2022-08-05T13:52:18;28.90;49.60
37886;DHT22;23726;52.520;13.434;2022-08-05T13:54:44;28.90;49.60
37886;DHT22;23726;52.520;13.434;2022-08-05T13:57:11;28.90;49.60
37886;DHT22;23726;52.520;13.434;2022-08-05T13:59:38;28.90;49.50
37886;DHT22;23726;52.520;13.434;2022-08-05T14:02:05;28.90;49.50
37886;DHT22;23726;52.520;13.434;2022-08-05T14:04:40;28.90;49.30
37886;DHT22;23726;52.520;13.434;2022-08-05T14:07:28;28.90;49.40
37886;DHT22;23726;52.520;13.434;2022-08-05T14:09:54;28.90;49.40
37886;DHT22;23726;52.520;13.434;2022-08-05T14:12:20;28.90;49.40
37886;DHT22;23726;52.520;13.434;2022-08-05T14:14:46;28.90;49.30
37886;DHT22;23726;52.520;13.434;2022-08-05T14:17:12;28.90;49.30
37886;DHT22;23726;52.520;13.434;2022-08-05T14:19:39;28.90;49.30
37886;DHT22;23726;52.520;13.434;2022-08-05T14:22:05;28.90;49.30
37886;DHT22;23726;52.520;13.434;2022-08-05T14:24:30;28.90;49.20
37886;DHT22;23726;52.520;13.434;2022-08-05T14:26:56;28.90;49.10
37886;DHT22;23726;52.520;13.434;2022-08-05T14:29:22;28.90;49.20
37886;DHT22;23726;52.520;13.434;2022-08-05T14:31:48;28.90;49.10
37886;DHT22;23726;52.520;13.434;2022-08-05T14:34:13;28.90;49.10
37886;DHT22;23726;52.520;13.434;2022-08-05T14:36:39;28.90;49.10
37886;DHT22;23726;52.520;13.434;2022-08-05T14:39:04;28.90;49.30
37886;DHT22;23726;52.520;13.434;2022-08-05T14:41:31;28.90;49.10
37886;DHT22;23726;52.520;13.434;2022-08-05T14:43:57;28.90;49.10
37886;DHT22;23726;52.520;13.434;2022-08-05T14:46:24;28.90;49.20
37886;DHT22;23726;52.520;13.434;2022-08-05T14:48:50;28.90;49.30
37886;DHT22;23726;52.520;13.434;2022-08-05T14:51:17;28.90;49.30
37886;DHT22;23726;52.520;13.434;2022-08-05T14:53:42;28.90;49.30
37886;DHT22;23726;52.520;13.434;2022-08-05T14:56:08;28.90;49.40
37886;DHT22;23726;52.520;13.434;2022-08-05T14:58:33;28.90;49.30
37886;DHT22;23726;52.520;13.434;2022-08-05T15:00:59;28.90;49.40
37886;DHT22;23726;52.520;13.434;2022-08-05T15:03:28;28.90;49.40
37886;DHT22;23726;52.520;13.434;2022-08-05T15:05:54;28.90;49.40
37886;DHT22;23726;52.520;13.434;2022-08-05T15:08:20;28.90;49.60
37886;DHT22;23726;52.520;13.434;2022-08-05T15:10:45;28.90;49.50
37886;DHT22;23726;52.520;13.434;2022-08-05T15:13:11;28.90;49.10
37886;DHT22;23726;52.520;13.434;2022-08-05T15:15:37;28.90;49.60
37886;DHT22;23726;52.520;13.434;2022-08-05T15:18:02;28.90;49.60
37886;DHT22;23726;52.520;13.434;2022-08-05T15:20:28;28.90;49.60
37886;DHT22;23726;52.520;13.434;2022-08-05T15:22:54;28.90;49.70
37886;DHT22;23726;52.520;13.434;2022-08-05T15:25:19;28.90;49.60
37886;DHT22;23726;52.520;13.434;2022-08-05T15:27:46;28.90;49.60
37886;DHT22;23726;52.520;13.434;2022-08-05T15:30:11;28.90;49.70
37886;DHT22;23726;52.520;13.434;2022-08-05T15:32:37;28.90;49.70
37886;DHT22;23726;52.520;13.434;2022-08-05T15:35:03;28.90;49.60
37886;DHT22;23726;52.520;13.434;2022-08-05T15:37:29;28.90;49.60
37886;DHT22;23726;52.520;13.434;2022-08-05T15:39:54;28.90;49.80
37886;DHT22;23726;52.520;13.434;2022-08-05T15:42:22;28.90;49.70
37886;DHT22;23726;52.520;13.434;2022-08-05T15:44:49;28.90;49.80